sensor_id;sensor_type;location;lat;lon;timestamp;P1;durP1;ratioP1;P2;durP2;ratioP2
19149;SDS011;9707;49.158;8.632;2023-07-16T00:00:51;1.88;;;1.08;;
19149;SDS011;9707;49.158;8.632;2023-07-16T00:03:16;2.28;;;1.20;;
19149;SDS011;9707;49.158;8.632;2023-07-16T00:05:42;3.53;;;0.98;;
19149;SDS011;9707;49.158;8.632;2023-07-16T00:08:07;1.60;;;1.02;;
19149;SDS011;9707;49.158;8.632;2023-07-16T00:10:36;1.20;;;0.82;;
19149;SDS011;9707;49.158;8.632;2023-07-16T00:13:02;2.75;;;1.05;;
19149;SDS011;9707;49.158;8.632;2023-07-16T00:15:28;2.13;;;1.00;;
19149;SDS011;9707;49.158;8.632;2023-07-16T00:17:54;2.92;;;1.25;;
19149;SDS011;9707;49.158;8.632;2023-07-16T00:20:20;1.85;;;1.20;;
19149;SDS011;9707;49.158;8.632;2023-07-16T00:22:45;1.55;;;1.02;;
19149;SDS011;9707;49.158;8.632;2023-07-16T00:25:10;2.40;;;1.52;;
19149;SDS011;9707;49.158;8.632;2023-07-16T00:27:36;2.88;;;1.13;;
19149;SDS011;9707;49.158;8.632;2023-07-16T00:30:01;2.80;;;1.10;;
19149;SDS011;9707;49.158;8.632;2023-07-16T00:32:27;1.50;;;1.10;;
19149;SDS011;9707;49.158;8.632;2023-07-16T00:34:52;5.03;;;1.23;;
19149;SDS011;9707;49.158;8.632;2023-07-16T00:37:18;5.32;;;1.30;;
19149;SDS011;9707;49.158;8.632;2023-07-16T00:39:43;2.88;;;1.40;;
19149;SDS011;9707;49.158;8.632;2023-07-16T00:42:09;2.25;;;1.08;;
19149;SDS011;9707;49.158;8.632;2023-07-16T00:44:34;2.55;;;1.20;;
19149;SDS011;9707;49.158;8.632;2023-07-16T00:46:59;1.73;;;0.90;;
19149;SDS011;9707;49.158;8.632;2023-07-16T00:49:25;1.38;;;0.90;;
19149;SDS011;9707;49.158;8.632;2023-07-16T00:51:50;3.15;;;0.90;;
19149;SDS011;9707;49.158;8.632;2023-07-16T00:54:17;2.80;;;1.42;;
19149;SDS011;9707;49.158;8.632;2023-07-16T00:56:44;2.20;;;1.10;;
19149;SDS011;9707;49.158;8.632;2023-07-16T00:59:09;1.60;;;1.02;;
19149;SDS011;9707;49.158;8.632;2023-07-16T01:01:34;2.20;;;1.00;;
19149;SDS011;9707;49.158;8.632;2023-07-16T01:04:00;2.10;;;0.90;;
19149;SDS011;9707;49.158;8.632;2023-07-16T01:06:29;0.90;;;0.80;;
19149;SDS011;9707;49.158;8.632;2023-07-16T01:11:44;1.45;;;0.80;;
19149;SDS011;9707;49.158;8.632;2023-07-16T01:14:10;2.17;;;1.00;;
19149;SDS011;9707;49.158;8.632;2023-07-16T01:16:38;1.90;;;1.00;;
19149;SDS011;9707;49.158;8.632;2023-07-16T01:19:03;1.50;;;1.00;;
19149;SDS011;9707;49.158;8.632;2023-07-16T01:21:43;3.00;;;1.05;;
19149;SDS011;9707;49.158;8.632;2023-07-16T01:27:19;2.10;;;0.75;;
19149;SDS011;9707;49.158;8.632;2023-07-16T01:29:56;1.75;;;1.15;;
19149;SDS011;9707;49.158;8.632;2023-07-16T01:32:26;2.47;;;0.80;;
19149;SDS011;9707;49.158;8.632;2023-07-16T01:34:53;2.88;;;0.80;;
19149;SDS011;9707;49.158;8.632;2023-07-16T01:37:19;4.50;;;1.05;;
19149;SDS011;9707;49.158;8.632;2023-07-16T01:39:44;2.10;;;1.10;;
19149;SDS011;9707;49.158;8.632;2023-07-16T01:42:10;1.52;;;1.00;;
19149;SDS011;9707;49.158;8.632;2023-07-16T01:44:35;2.63;;;0.88;;
19149;SDS011;9707;49.158;8.632;2023-07-16T01:49:41;2.45;;;0.70;;
19149;SDS011;9707;49.158;8.632;2023-07-16T01:52:07;1.20;;;0.90;;
19149;SDS011;9707;49.158;8.632;2023-07-16T01:54:34;5.97;;;1.17;;
19149;SDS011;9707;49.158;8.632;2023-07-16T01:56:59;1.42;;;0.70;;
19149;SDS011;9707;49.158;8.632;2023-07-16T01:59:25;1.58;;;0.80;;
19149;SDS011;9707;49.158;8.632;2023-07-16T02:01:50;1.58;;;0.70;;
19149;SDS011;9707;49.158;8.632;2023-07-16T02:04:15;1.65;;;0.90;;
19149;SDS011;9707;49.158;8.632;2023-07-16T02:06:40;5.20;;;1.15;;
19149;SDS011;9707;49.158;8.632;2023-07-16T02:09:06;3.63;;;1.25;;
19149;SDS011;9707;49.158;8.632;2023-07-16T02:11:31;1.50;;;1.02;;
19149;SDS011;9707;49.158;8.632;2023-07-16T02:13:56;2.72;;;1.00;;
19149;SDS011;9707;49.158;8.632;2023-07-16T02:16:21;1.45;;;1.05;;
19149;SDS011;9707;49.158;8.632;2023-07-16T02:18:47;1.58;;;1.10;;
19149;SDS011;9707;49.158;8.632;2023-07-16T02:21:12;1.63;;;0.90;;
19149;SDS011;9707;49.158;8.632;2023-07-16T02:23:37;2.45;;;1.00;;
19149;SDS011;9707;49.158;8.632;2023-07-16T02:26:02;3.85;;;1.08;;
19149;SDS011;9707;49.158;8.632;2023-07-16T02:28:28;2.85;;;1.20;;
19149;SDS011;9707;49.158;8.632;2023-07-16T02:30:53;2.95;;;0.82;;
19149;SDS011;9707;49.158;8.632;2023-07-16T02:33:18;1.85;;;1.10;;
19149;SDS011;9707;49.158;8.632;2023-07-16T02:35:47;2.40;;;0.80;;
19149;SDS011;9707;49.158;8.632;2023-07-16T02:38:14;1.13;;;0.73;;
19149;SDS011;9707;49.158;8.632;2023-07-16T02:40:43;1.63;;;0.90;;
19149;SDS011;9707;49.158;8.632;2023-07-16T02:43:12;2.80;;;1.10;;
19149;SDS011;9707;49.158;8.632;2023-07-16T02:45:38;4.80;;;0.90;;
19149;SDS011;9707;49.158;8.632;2023-07-16T02:48:04;3.47;;;0.90;;
19149;SDS011;9707;49.158;8.632;2023-07-16T02:50:30;6.53;;;1.10;;
19149;SDS011;9707;49.158;8.632;2023-07-16T02:52:58;2.17;;;0.90;;
19149;SDS011;9707;49.158;8.632;2023-07-16T02:55:23;1.27;;;0.98;;
19149;SDS011;9707;49.158;8.632;2023-07-16T02:57:48;2.35;;;0.73;;
19149;SDS011;9707;49.158;8.632;2023-07-16T03:00:14;4.70;;;1.00;;
19149;SDS011;9707;49.158;8.632;2023-07-16T03:02:39;4.68;;;1.08;;
19149;SDS011;9707;49.158;8.632;2023-07-16T03:05:04;3.65;;;0.80;;
19149;SDS011;9707;49.158;8.632;2023-07-16T03:07:30;2.38;;;1.20;;
19149;SDS011;9707;49.158;8.632;2023-07-16T03:09:55;2.45;;;1.00;;
19149;SDS011;9707;49.158;8.632;2023-07-16T03:12:20;3.15;;;0.90;;
19149;SDS011;9707;49.158;8.632;2023-07-16T03:14:47;3.30;;;1.00;;
19149;SDS011;9707;49.158;8.632;2023-07-16T03:17:12;1.35;;;0.70;;
19149;SDS011;9707;49.158;8.632;2023-07-16T03:19:37;1.70;;;0.80;;
19149;SDS011;9707;49.158;8.632;2023-07-16T03:22:03;2.17;;;1.15;;
19149;SDS011;9707;49.158;8.632;2023-07-16T03:24:29;2.47;;;1.15;;
19149;SDS011;9707;49.158;8.632;2023-07-16T03:26:54;3.22;;;1.10;;
19149;SDS011;9707;49.158;8.632;2023-07-16T03:29:19;3.30;;;0.90;;
19149;SDS011;9707;49.158;8.632;2023-07-16T03:31:44;2.97;;;1.10;;
19149;SDS011;9707;49.158;8.632;2023-07-16T03:34:10;6.22;;;1.40;;
19149;SDS011;9707;49.158;8.632;2023-07-16T03:36:35;0.98;;;0.70;;
19149;SDS011;9707;49.158;8.632;2023-07-16T03:39:00;1.95;;;1.02;;
19149;SDS011;9707;49.158;8.632;2023-07-16T03:41:25;2.90;;;1.00;;
19149;SDS011;9707;49.158;8.632;2023-07-16T03:43:51;2.28;;;0.90;;
19149;SDS011;9707;49.158;8.632;2023-07-16T03:46:16;2.38;;;1.10;;
19149;SDS011;9707;49.158;8.632;2023-07-16T03:48:41;3.00;;;1.10;;
19149;SDS011;9707;49.158;8.632;2023-07-16T03:51:06;1.67;;;0.82;;
19149;SDS011;9707;49.158;8.632;2023-07-16T03:53:32;2.45;;;1.00;;
19149;SDS011;9707;49.158;8.632;2023-07-16T03:55:57;3.17;;;1.30;;
19149;SDS011;9707;49.158;8.632;2023-07-16T03:58:22;3.35;;;1.17;;
19149;SDS011;9707;49.158;8.632;2023-07-16T04:00:48;5.00;;;1.15;;
19149;SDS011;9707;49.158;8.632;2023-07-16T04:03:13;1.88;;;0.80;;
19149;SDS011;9707;49.158;8.632;2023-07-16T04:05:38;3.55;;;1.00;;
19149;SDS011;9707;49.158;8.632;2023-07-16T04:08:03;5.13;;;1.00;;
19149;SDS011;9707;49.158;8.632;2023-07-16T04:10:29;4.40;;;1.10;;
19149;SDS011;9707;49.158;8.632;2023-07-16T04:12:54;3.53;;;1.10;;
19149;SDS011;9707;49.158;8.632;2023-07-16T04:15:19;3.55;;;1.30;;
19149;SDS011;9707;49.158;8.632;2023-07-16T04:17:44;1.77;;;1.00;;
19149;SDS011;9707;49.158;8.632;2023-07-16T04:20:10;5.68;;;1.05;;
19149;SDS011;9707;49.158;8.632;2023-07-16T04:22:35;1.48;;;0.80;;
19149;SDS011;9707;49.158;8.632;2023-07-16T04:25:01;3.20;;;1.17;;
19149;SDS011;9707;49.158;8.632;2023-07-16T04:27:26;1.95;;;1.00;;
19149;SDS011;9707;49.158;8.632;2023-07-16T04:29:51;3.22;;;0.98;;
19149;SDS011;9707;49.158;8.632;2023-07-16T04:32:17;3.63;;;1.42;;
19149;SDS011;9707;49.158;8.632;2023-07-16T04:34:42;3.00;;;1.00;;
19149;SDS011;9707;49.158;8.632;2023-07-16T04:37:08;4.57;;;1.20;;
19149;SDS011;9707;49.158;8.632;2023-07-16T04:39:33;2.40;;;0.98;;
19149;SDS011;9707;49.158;8.632;2023-07-16T04:41:58;1.73;;;0.98;;
19149;SDS011;9707;49.158;8.632;2023-07-16T04:44:23;2.95;;;0.82;;
19149;SDS011;9707;49.158;8.632;2023-07-16T04:46:49;3.13;;;0.98;;
19149;SDS011;9707;49.158;8.632;2023-07-16T04:49:14;5.75;;;1.10;;
19149;SDS011;9707;49.158;8.632;2023-07-16T04:51:39;3.50;;;1.05;;
19149;SDS011;9707;49.158;8.632;2023-07-16T04:54:04;1.88;;;1.15;;
19149;SDS011;9707;49.158;8.632;2023-07-16T04:56:30;2.03;;;1.20;;
19149;SDS011;9707;49.158;8.632;2023-07-16T04:58:55;2.40;;;1.08;;
19149;SDS011;9707;49.158;8.632;2023-07-16T05:01:20;3.90;;;0.82;;
19149;SDS011;9707;49.158;8.632;2023-07-16T05:03:46;1.75;;;0.85;;
19149;SDS011;9707;49.158;8.632;2023-07-16T05:06:11;2.72;;;1.35;;
19149;SDS011;9707;49.158;8.632;2023-07-16T05:08:36;2.53;;;1.13;;
19149;SDS011;9707;49.158;8.632;2023-07-16T05:11:01;2.30;;;1.13;;
19149;SDS011;9707;49.158;8.632;2023-07-16T05:13:27;2.53;;;1.00;;
19149;SDS011;9707;49.158;8.632;2023-07-16T05:15:52;2.47;;;1.10;;
19149;SDS011;9707;49.158;8.632;2023-07-16T05:18:17;3.38;;;1.15;;
19149;SDS011;9707;49.158;8.632;2023-07-16T05:20:42;3.55;;;1.25;;
19149;SDS011;9707;49.158;8.632;2023-07-16T05:23:09;4.53;;;1.42;;
19149;SDS011;9707;49.158;8.632;2023-07-16T05:25:34;1.75;;;1.10;;
19149;SDS011;9707;49.158;8.632;2023-07-16T05:28:00;3.28;;;1.17;;
19149;SDS011;9707;49.158;8.632;2023-07-16T05:30:25;4.40;;;1.08;;
19149;SDS011;9707;49.158;8.632;2023-07-16T05:32:53;2.97;;;1.27;;
19149;SDS011;9707;49.158;8.632;2023-07-16T05:35:19;2.33;;;0.90;;
19149;SDS011;9707;49.158;8.632;2023-07-16T05:37:44;3.67;;;1.10;;
19149;SDS011;9707;49.158;8.632;2023-07-16T05:40:09;2.55;;;0.98;;
19149;SDS011;9707;49.158;8.632;2023-07-16T05:42:35;2.95;;;0.90;;
19149;SDS011;9707;49.158;8.632;2023-07-16T05:45:00;4.10;;;1.20;;
19149;SDS011;9707;49.158;8.632;2023-07-16T05:47:26;2.85;;;1.20;;
19149;SDS011;9707;49.158;8.632;2023-07-16T05:49:51;2.65;;;0.90;;
19149;SDS011;9707;49.158;8.632;2023-07-16T05:52:16;1.80;;;1.00;;
19149;SDS011;9707;49.158;8.632;2023-07-16T05:54:43;2.30;;;1.30;;
19149;SDS011;9707;49.158;8.632;2023-07-16T05:57:08;2.13;;;0.88;;
19149;SDS011;9707;49.158;8.632;2023-07-16T05:59:34;3.38;;;0.98;;
19149;SDS011;9707;49.158;8.632;2023-07-16T06:02:01;1.92;;;1.10;;
19149;SDS011;9707;49.158;8.632;2023-07-16T06:04:27;4.85;;;0.80;;
19149;SDS011;9707;49.158;8.632;2023-07-16T06:06:52;2.55;;;1.00;;
19149;SDS011;9707;49.158;8.632;2023-07-16T06:09:17;3.33;;;1.20;;
19149;SDS011;9707;49.158;8.632;2023-07-16T06:11:45;3.15;;;1.15;;
19149;SDS011;9707;49.158;8.632;2023-07-16T06:14:11;3.22;;;1.13;;
19149;SDS011;9707;49.158;8.632;2023-07-16T06:16:36;2.90;;;0.85;;
19149;SDS011;9707;49.158;8.632;2023-07-16T06:19:02;3.35;;;1.08;;
19149;SDS011;9707;49.158;8.632;2023-07-16T06:21:27;4.80;;;1.30;;
19149;SDS011;9707;49.158;8.632;2023-07-16T06:23:52;3.05;;;0.88;;
19149;SDS011;9707;49.158;8.632;2023-07-16T06:26:17;4.43;;;1.00;;
19149;SDS011;9707;49.158;8.632;2023-07-16T06:28:43;1.52;;;1.00;;
19149;SDS011;9707;49.158;8.632;2023-07-16T06:31:08;3.40;;;1.35;;
19149;SDS011;9707;49.158;8.632;2023-07-16T06:33:33;5.40;;;1.25;;
19149;SDS011;9707;49.158;8.632;2023-07-16T06:35:58;3.08;;;1.00;;
19149;SDS011;9707;49.158;8.632;2023-07-16T06:38:24;3.70;;;1.33;;
19149;SDS011;9707;49.158;8.632;2023-07-16T06:40:50;3.42;;;1.08;;
19149;SDS011;9707;49.158;8.632;2023-07-16T06:43:17;4.50;;;1.08;;
19149;SDS011;9707;49.158;8.632;2023-07-16T06:45:42;3.25;;;1.10;;
19149;SDS011;9707;49.158;8.632;2023-07-16T06:48:08;5.07;;;1.15;;
19149;SDS011;9707;49.158;8.632;2023-07-16T06:50:33;2.35;;;1.15;;
19149;SDS011;9707;49.158;8.632;2023-07-16T06:52:59;3.65;;;1.20;;
19149;SDS011;9707;49.158;8.632;2023-07-16T06:55:24;4.72;;;1.20;;
19149;SDS011;9707;49.158;8.632;2023-07-16T06:57:49;6.93;;;1.30;;
19149;SDS011;9707;49.158;8.632;2023-07-16T07:00:15;3.17;;;1.23;;
19149;SDS011;9707;49.158;8.632;2023-07-16T07:02:41;4.85;;;1.27;;
19149;SDS011;9707;49.158;8.632;2023-07-16T07:05:06;5.35;;;1.60;;
19149;SDS011;9707;49.158;8.632;2023-07-16T07:07:32;5.07;;;1.40;;
19149;SDS011;9707;49.158;8.632;2023-07-16T07:09:57;3.53;;;1.30;;
19149;SDS011;9707;49.158;8.632;2023-07-16T07:12:23;3.30;;;1.70;;
19149;SDS011;9707;49.158;8.632;2023-07-16T07:14:48;5.22;;;1.40;;
19149;SDS011;9707;49.158;8.632;2023-07-16T07:17:14;3.88;;;1.50;;
19149;SDS011;9707;49.158;8.632;2023-07-16T07:19:39;7.28;;;1.63;;
19149;SDS011;9707;49.158;8.632;2023-07-16T07:22:05;5.97;;;1.33;;
19149;SDS011;9707;49.158;8.632;2023-07-16T07:24:30;3.70;;;1.83;;
19149;SDS011;9707;49.158;8.632;2023-07-16T07:26:55;3.30;;;1.27;;
19149;SDS011;9707;49.158;8.632;2023-07-16T07:29:20;5.65;;;1.40;;
19149;SDS011;9707;49.158;8.632;2023-07-16T07:31:46;4.03;;;1.50;;
19149;SDS011;9707;49.158;8.632;2023-07-16T07:34:11;4.32;;;1.55;;
19149;SDS011;9707;49.158;8.632;2023-07-16T07:36:36;5.05;;;1.55;;
19149;SDS011;9707;49.158;8.632;2023-07-16T07:39:01;5.10;;;1.42;;
19149;SDS011;9707;49.158;8.632;2023-07-16T07:41:27;3.85;;;1.38;;
19149;SDS011;9707;49.158;8.632;2023-07-16T07:43:52;5.22;;;1.65;;
19149;SDS011;9707;49.158;8.632;2023-07-16T07:46:17;5.55;;;1.60;;
19149;SDS011;9707;49.158;8.632;2023-07-16T07:48:42;3.92;;;1.20;;
19149;SDS011;9707;49.158;8.632;2023-07-16T07:51:08;4.70;;;1.30;;
19149;SDS011;9707;49.158;8.632;2023-07-16T07:53:33;6.57;;;1.48;;
19149;SDS011;9707;49.158;8.632;2023-07-16T07:55:58;4.70;;;1.40;;
19149;SDS011;9707;49.158;8.632;2023-07-16T07:58:24;4.07;;;1.52;;
19149;SDS011;9707;49.158;8.632;2023-07-16T08:00:49;3.72;;;1.33;;
19149;SDS011;9707;49.158;8.632;2023-07-16T08:03:14;2.67;;;1.45;;
19149;SDS011;9707;49.158;8.632;2023-07-16T08:05:39;6.93;;;1.83;;
19149;SDS011;9707;49.158;8.632;2023-07-16T08:08:05;6.90;;;1.38;;
19149;SDS011;9707;49.158;8.632;2023-07-16T08:10:30;6.22;;;1.60;;
19149;SDS011;9707;49.158;8.632;2023-07-16T08:12:55;4.07;;;1.30;;
19149;SDS011;9707;49.158;8.632;2023-07-16T08:15:21;6.40;;;1.58;;
19149;SDS011;9707;49.158;8.632;2023-07-16T08:17:46;5.85;;;1.73;;
19149;SDS011;9707;49.158;8.632;2023-07-16T08:20:12;3.53;;;1.42;;
19149;SDS011;9707;49.158;8.632;2023-07-16T08:22:38;4.60;;;1.85;;
19149;SDS011;9707;49.158;8.632;2023-07-16T08:25:04;5.88;;;1.60;;
19149;SDS011;9707;49.158;8.632;2023-07-16T08:27:30;3.03;;;1.38;;
19149;SDS011;9707;49.158;8.632;2023-07-16T08:29:56;6.50;;;1.55;;
19149;SDS011;9707;49.158;8.632;2023-07-16T08:32:21;4.63;;;1.80;;
19149;SDS011;9707;49.158;8.632;2023-07-16T08:34:47;5.53;;;1.58;;
19149;SDS011;9707;49.158;8.632;2023-07-16T08:37:12;5.70;;;1.50;;
19149;SDS011;9707;49.158;8.632;2023-07-16T08:39:38;4.05;;;1.40;;
19149;SDS011;9707;49.158;8.632;2023-07-16T08:42:03;8.95;;;1.50;;
19149;SDS011;9707;49.158;8.632;2023-07-16T08:44:29;4.13;;;1.65;;
19149;SDS011;9707;49.158;8.632;2023-07-16T08:46:55;3.65;;;1.60;;
19149;SDS011;9707;49.158;8.632;2023-07-16T08:49:21;9.82;;;1.58;;
19149;SDS011;9707;49.158;8.632;2023-07-16T08:51:47;4.43;;;1.63;;
19149;SDS011;9707;49.158;8.632;2023-07-16T08:54:13;2.85;;;1.02;;
19149;SDS011;9707;49.158;8.632;2023-07-16T08:56:44;5.65;;;2.00;;
19149;SDS011;9707;49.158;8.632;2023-07-16T08:59:09;3.05;;;1.38;;
19149;SDS011;9707;49.158;8.632;2023-07-16T09:01:35;6.40;;;1.50;;
19149;SDS011;9707;49.158;8.632;2023-07-16T09:04:02;4.80;;;1.38;;
19149;SDS011;9707;49.158;8.632;2023-07-16T09:06:27;5.95;;;1.40;;
19149;SDS011;9707;49.158;8.632;2023-07-16T09:08:52;4.13;;;1.40;;
19149;SDS011;9707;49.158;8.632;2023-07-16T09:11:18;8.35;;;1.42;;
19149;SDS011;9707;49.158;8.632;2023-07-16T09:13:46;7.18;;;1.45;;
19149;SDS011;9707;49.158;8.632;2023-07-16T09:16:12;3.25;;;1.63;;
19149;SDS011;9707;49.158;8.632;2023-07-16T09:18:39;5.90;;;1.80;;
19149;SDS011;9707;49.158;8.632;2023-07-16T09:21:05;5.18;;;1.75;;
19149;SDS011;9707;49.158;8.632;2023-07-16T09:23:32;6.80;;;1.63;;
19149;SDS011;9707;49.158;8.632;2023-07-16T09:25:58;4.75;;;1.63;;
19149;SDS011;9707;49.158;8.632;2023-07-16T09:28:23;3.38;;;1.52;;
19149;SDS011;9707;49.158;8.632;2023-07-16T09:30:50;7.53;;;1.60;;
19149;SDS011;9707;49.158;8.632;2023-07-16T09:33:17;4.05;;;1.73;;
19149;SDS011;9707;49.158;8.632;2023-07-16T09:35:43;6.22;;;1.92;;
19149;SDS011;9707;49.158;8.632;2023-07-16T09:38:09;4.60;;;1.55;;
19149;SDS011;9707;49.158;8.632;2023-07-16T09:40:36;3.78;;;1.17;;
19149;SDS011;9707;49.158;8.632;2023-07-16T09:43:02;7.10;;;2.45;;
19149;SDS011;9707;49.158;8.632;2023-07-16T09:45:28;3.92;;;1.67;;
19149;SDS011;9707;49.158;8.632;2023-07-16T09:47:53;5.80;;;1.60;;
19149;SDS011;9707;49.158;8.632;2023-07-16T09:50:19;3.92;;;1.83;;
19149;SDS011;9707;49.158;8.632;2023-07-16T09:52:46;4.20;;;1.38;;
19149;SDS011;9707;49.158;8.632;2023-07-16T09:55:12;5.63;;;1.73;;
19149;SDS011;9707;49.158;8.632;2023-07-16T09:57:40;4.20;;;1.48;;
19149;SDS011;9707;49.158;8.632;2023-07-16T10:00:09;4.75;;;2.15;;
19149;SDS011;9707;49.158;8.632;2023-07-16T10:02:37;5.85;;;1.92;;
19149;SDS011;9707;49.158;8.632;2023-07-16T10:05:15;5.82;;;1.92;;
19149;SDS011;9707;49.158;8.632;2023-07-16T10:07:41;5.10;;;2.00;;
19149;SDS011;9707;49.158;8.632;2023-07-16T10:10:08;7.90;;;2.40;;
19149;SDS011;9707;49.158;8.632;2023-07-16T10:12:34;6.05;;;1.98;;
19149;SDS011;9707;49.158;8.632;2023-07-16T10:15:00;5.65;;;1.58;;
19149;SDS011;9707;49.158;8.632;2023-07-16T10:17:29;4.60;;;1.80;;
19149;SDS011;9707;49.158;8.632;2023-07-16T10:22:31;9.25;;;1.83;;
19149;SDS011;9707;49.158;8.632;2023-07-16T10:24:57;2.88;;;1.55;;
19149;SDS011;9707;49.158;8.632;2023-07-16T10:27:29;3.60;;;1.38;;
19149;SDS011;9707;49.158;8.632;2023-07-16T10:29:55;5.32;;;1.60;;
19149;SDS011;9707;49.158;8.632;2023-07-16T10:32:21;4.68;;;1.63;;
19149;SDS011;9707;49.158;8.632;2023-07-16T10:34:46;5.20;;;1.83;;
19149;SDS011;9707;49.158;8.632;2023-07-16T10:37:12;3.10;;;1.30;;
19149;SDS011;9707;49.158;8.632;2023-07-16T10:39:45;3.63;;;1.45;;
19149;SDS011;9707;49.158;8.632;2023-07-16T10:42:11;4.32;;;1.75;;
19149;SDS011;9707;49.158;8.632;2023-07-16T10:44:37;3.28;;;1.92;;
19149;SDS011;9707;49.158;8.632;2023-07-16T10:47:05;4.60;;;1.90;;
19149;SDS011;9707;49.158;8.632;2023-07-16T10:49:30;5.05;;;1.60;;
19149;SDS011;9707;49.158;8.632;2023-07-16T10:51:57;4.10;;;1.70;;
19149;SDS011;9707;49.158;8.632;2023-07-16T10:54:25;2.95;;;1.52;;
19149;SDS011;9707;49.158;8.632;2023-07-16T10:56:51;4.32;;;1.48;;
19149;SDS011;9707;49.158;8.632;2023-07-16T10:59:16;3.55;;;1.60;;
19149;SDS011;9707;49.158;8.632;2023-07-16T11:01:42;3.30;;;1.40;;
19149;SDS011;9707;49.158;8.632;2023-07-16T11:04:08;4.20;;;1.45;;
19149;SDS011;9707;49.158;8.632;2023-07-16T11:06:34;6.55;;;1.70;;
19149;SDS011;9707;49.158;8.632;2023-07-16T11:09:07;4.30;;;1.58;;
19149;SDS011;9707;49.158;8.632;2023-07-16T11:11:33;2.55;;;1.50;;
19149;SDS011;9707;49.158;8.632;2023-07-16T11:13:59;4.72;;;1.50;;
19149;SDS011;9707;49.158;8.632;2023-07-16T11:16:27;6.38;;;1.80;;
19149;SDS011;9707;49.158;8.632;2023-07-16T11:18:58;2.65;;;1.45;;
19149;SDS011;9707;49.158;8.632;2023-07-16T11:21:23;3.47;;;1.55;;
19149;SDS011;9707;49.158;8.632;2023-07-16T11:23:49;5.15;;;1.60;;
19149;SDS011;9707;49.158;8.632;2023-07-16T11:26:14;4.68;;;1.80;;
19149;SDS011;9707;49.158;8.632;2023-07-16T11:28:40;4.63;;;1.60;;
19149;SDS011;9707;49.158;8.632;2023-07-16T11:31:10;3.95;;;1.77;;
19149;SDS011;9707;49.158;8.632;2023-07-16T11:33:42;4.50;;;1.83;;
19149;SDS011;9707;49.158;8.632;2023-07-16T11:36:11;5.20;;;1.77;;
19149;SDS011;9707;49.158;8.632;2023-07-16T11:38:37;3.80;;;1.60;;
19149;SDS011;9707;49.158;8.632;2023-07-16T11:41:02;2.88;;;1.50;;
19149;SDS011;9707;49.158;8.632;2023-07-16T11:43:28;4.28;;;1.75;;
19149;SDS011;9707;49.158;8.632;2023-07-16T11:45:53;3.60;;;1.65;;
19149;SDS011;9707;49.158;8.632;2023-07-16T11:48:18;5.03;;;1.77;;
19149;SDS011;9707;49.158;8.632;2023-07-16T11:50:44;3.85;;;1.67;;
19149;SDS011;9707;49.158;8.632;2023-07-16T11:53:10;5.85;;;1.75;;
19149;SDS011;9707;49.158;8.632;2023-07-16T11:55:39;5.70;;;2.80;;
19149;SDS011;9707;49.158;8.632;2023-07-16T11:58:04;2.40;;;1.67;;
19149;SDS011;9707;49.158;8.632;2023-07-16T12:00:29;6.00;;;2.17;;
19149;SDS011;9707;49.158;8.632;2023-07-16T12:02:54;3.30;;;1.63;;
19149;SDS011;9707;49.158;8.632;2023-07-16T12:05:20;4.55;;;1.48;;
19149;SDS011;9707;49.158;8.632;2023-07-16T12:07:46;5.60;;;1.92;;
19149;SDS011;9707;49.158;8.632;2023-07-16T12:10:11;5.57;;;1.85;;
19149;SDS011;9707;49.158;8.632;2023-07-16T12:12:37;4.13;;;1.80;;
19149;SDS011;9707;49.158;8.632;2023-07-16T12:15:03;6.32;;;1.42;;
19149;SDS011;9707;49.158;8.632;2023-07-16T12:17:29;5.68;;;1.65;;
19149;SDS011;9707;49.158;8.632;2023-07-16T12:19:55;5.85;;;1.73;;
19149;SDS011;9707;49.158;8.632;2023-07-16T12:22:20;2.60;;;1.67;;
19149;SDS011;9707;49.158;8.632;2023-07-16T12:24:46;4.60;;;1.63;;
19149;SDS011;9707;49.158;8.632;2023-07-16T12:27:11;3.97;;;1.27;;
19149;SDS011;9707;49.158;8.632;2023-07-16T12:29:37;5.32;;;1.90;;
19149;SDS011;9707;49.158;8.632;2023-07-16T12:32:02;3.28;;;1.60;;
19149;SDS011;9707;49.158;8.632;2023-07-16T12:34:28;3.55;;;1.70;;
19149;SDS011;9707;49.158;8.632;2023-07-16T12:36:53;4.95;;;1.77;;
19149;SDS011;9707;49.158;8.632;2023-07-16T12:39:20;5.30;;;1.67;;
19149;SDS011;9707;49.158;8.632;2023-07-16T12:41:46;4.13;;;1.50;;
19149;SDS011;9707;49.158;8.632;2023-07-16T12:44:11;3.58;;;1.88;;
19149;SDS011;9707;49.158;8.632;2023-07-16T12:46:37;3.50;;;1.80;;
19149;SDS011;9707;49.158;8.632;2023-07-16T12:49:02;3.42;;;1.67;;
19149;SDS011;9707;49.158;8.632;2023-07-16T12:51:27;4.00;;;1.80;;
19149;SDS011;9707;49.158;8.632;2023-07-16T12:53:53;5.65;;;1.77;;
19149;SDS011;9707;49.158;8.632;2023-07-16T12:56:18;4.57;;;1.70;;
19149;SDS011;9707;49.158;8.632;2023-07-16T12:58:43;5.15;;;2.20;;
19149;SDS011;9707;49.158;8.632;2023-07-16T13:01:08;5.47;;;2.10;;
19149;SDS011;9707;49.158;8.632;2023-07-16T13:03:34;5.57;;;1.95;;
19149;SDS011;9707;49.158;8.632;2023-07-16T13:05:59;3.85;;;1.98;;
19149;SDS011;9707;49.158;8.632;2023-07-16T13:08:24;4.72;;;1.45;;
19149;SDS011;9707;49.158;8.632;2023-07-16T13:10:50;6.40;;;2.20;;
19149;SDS011;9707;49.158;8.632;2023-07-16T13:13:15;5.57;;;1.80;;
19149;SDS011;9707;49.158;8.632;2023-07-16T13:15:40;2.83;;;1.60;;
19149;SDS011;9707;49.158;8.632;2023-07-16T13:18:07;3.53;;;1.48;;
19149;SDS011;9707;49.158;8.632;2023-07-16T13:20:34;4.10;;;1.80;;
19149;SDS011;9707;49.158;8.632;2023-07-16T13:23:00;5.43;;;2.00;;
19149;SDS011;9707;49.158;8.632;2023-07-16T13:25:25;4.45;;;1.65;;
19149;SDS011;9707;49.158;8.632;2023-07-16T13:27:50;3.65;;;1.98;;
19149;SDS011;9707;49.158;8.632;2023-07-16T13:30:17;4.80;;;2.45;;
19149;SDS011;9707;49.158;8.632;2023-07-16T13:32:43;4.25;;;2.00;;
19149;SDS011;9707;49.158;8.632;2023-07-16T13:35:08;5.18;;;1.77;;
19149;SDS011;9707;49.158;8.632;2023-07-16T13:37:34;5.43;;;1.75;;
19149;SDS011;9707;49.158;8.632;2023-07-16T13:39:59;5.20;;;1.70;;
19149;SDS011;9707;49.158;8.632;2023-07-16T13:42:24;6.38;;;1.80;;
19149;SDS011;9707;49.158;8.632;2023-07-16T13:44:50;5.13;;;1.70;;
19149;SDS011;9707;49.158;8.632;2023-07-16T13:47:15;3.50;;;1.70;;
19149;SDS011;9707;49.158;8.632;2023-07-16T13:49:40;4.78;;;2.00;;
19149;SDS011;9707;49.158;8.632;2023-07-16T13:52:06;6.55;;;2.20;;
19149;SDS011;9707;49.158;8.632;2023-07-16T13:54:31;4.80;;;1.80;;
19149;SDS011;9707;49.158;8.632;2023-07-16T13:56:57;5.00;;;1.70;;
19149;SDS011;9707;49.158;8.632;2023-07-16T13:59:22;3.70;;;1.80;;
19149;SDS011;9707;49.158;8.632;2023-07-16T14:01:47;8.52;;;1.85;;
19149;SDS011;9707;49.158;8.632;2023-07-16T14:04:24;4.13;;;1.88;;
19149;SDS011;9707;49.158;8.632;2023-07-16T14:06:49;5.53;;;2.05;;
19149;SDS011;9707;49.158;8.632;2023-07-16T14:09:14;4.10;;;1.73;;
19149;SDS011;9707;49.158;8.632;2023-07-16T14:11:39;5.63;;;1.85;;
19149;SDS011;9707;49.158;8.632;2023-07-16T14:14:05;3.85;;;1.88;;
19149;SDS011;9707;49.158;8.632;2023-07-16T14:16:30;3.58;;;1.70;;
19149;SDS011;9707;49.158;8.632;2023-07-16T14:18:55;4.18;;;1.60;;
19149;SDS011;9707;49.158;8.632;2023-07-16T14:21:21;6.93;;;2.10;;
19149;SDS011;9707;49.158;8.632;2023-07-16T14:23:46;3.28;;;1.90;;
19149;SDS011;9707;49.158;8.632;2023-07-16T14:26:12;5.07;;;1.98;;
19149;SDS011;9707;49.158;8.632;2023-07-16T14:28:37;3.30;;;1.60;;
19149;SDS011;9707;49.158;8.632;2023-07-16T14:31:03;4.53;;;2.10;;
19149;SDS011;9707;49.158;8.632;2023-07-16T14:33:28;4.10;;;2.00;;
19149;SDS011;9707;49.158;8.632;2023-07-16T14:35:54;3.88;;;2.08;;
19149;SDS011;9707;49.158;8.632;2023-07-16T14:38:19;5.22;;;2.20;;
19149;SDS011;9707;49.158;8.632;2023-07-16T14:40:44;4.63;;;1.83;;
19149;SDS011;9707;49.158;8.632;2023-07-16T14:43:10;3.85;;;1.73;;
19149;SDS011;9707;49.158;8.632;2023-07-16T14:45:35;3.13;;;1.92;;
19149;SDS011;9707;49.158;8.632;2023-07-16T14:48:00;2.95;;;1.92;;
19149;SDS011;9707;49.158;8.632;2023-07-16T14:50:26;4.22;;;2.03;;
19149;SDS011;9707;49.158;8.632;2023-07-16T14:52:51;5.55;;;2.30;;
19149;SDS011;9707;49.158;8.632;2023-07-16T14:55:17;4.78;;;2.15;;
19149;SDS011;9707;49.158;8.632;2023-07-16T14:57:42;4.20;;;2.00;;
19149;SDS011;9707;49.158;8.632;2023-07-16T15:00:07;5.88;;;2.20;;
19149;SDS011;9707;49.158;8.632;2023-07-16T15:02:36;4.40;;;2.08;;